Latest Weather Observations for Port Macquarie Airport

IDN60801

Issued at 2:05 pm EST Wednesday 24 September 2014 (issued every 30 minutes, with the page automatically refreshed every 10 minutes)

About weather observations | Map of weather stations | Latest weather observations for NSW | Other Formats
Station Details ID: 060139 Name: PORT MACQUARIE AIRPORT AWS Lat: -31.43 Lon: 152.87 Height: 4.2 m
Data from the previous 72 hours. | See also: Recent months at Port Macquarie Airport
Date/Time
EST
Temp
°C
App
Temp
°C
Dew
Point
Rel
Hum
%
Delta-T
°C
Wind Press
QNH
hPa
Press
MSL
hPa
Rain
since 9 am
mm
Dir
 
Spd
km/h
Gust
km/h
Spd
kts
Gust
kts
24/02:00pm 22.7 19.1 14.3 59 4.9 NE 26 37 14 20 1019.1 1019.1 0.0
24/01:30pm 23.4 20.0 13.6 54 5.7 NE 24 35 13 19 1019.4 1019.4 0.0
24/01:00pm 24.2 21.2 13.7 52 6.1 NE 22 30 12 16 1019.8 1019.8 0.0
24/12:30pm 23.1 19.5 13.0 53 5.8 NE 24 35 13 19 1020.4 1020.4 0.0
24/12:00pm 23.4 19.9 12.1 49 6.4 ENE 22 35 12 19 1021.1 1021.1 0.0
24/11:30am 22.8 19.7 12.1 51 6.1 ENE 20 28 11 15 1021.6 1021.6 0.0
24/11:00am 22.7 18.7 10.5 46 6.7 N 22 32 12 17 1022.3 1022.3 0.0
24/10:30am 22.0 17.7 9.2 44 6.8 NNE 22 30 12 16 1022.9 1022.9 0.0
24/10:00am 22.3 18.3 9.1 43 7.0 N 20 30 11 16 1023.6 1023.6 0.0
24/09:30am 20.9 18.8 11.3 54 5.3 NNE 13 22 7 12 1024.2 1024.2 0.0
24/09:00am 18.5 17.3 11.6 64 3.8 NNW 9 13 5 7 1024.7 1024.7 0.0
24/08:30am 17.0 16.4 11.7 71 2.9 NNW 6 9 3 5 1024.8 1024.8 0.0
24/08:00am 14.7 13.8 11.3 80 1.8 NNW 7 11 4 6 1024.8 1024.8 0.0
24/07:30am 12.7 12.2 10.9 89 0.9 NW 4 7 2 4 1024.7 1024.7 0.0
24/07:00am 10.9 9.8 10.1 95 0.4 NNW 6 7 3 4 1024.7 1024.7 0.0
24/06:30am 9.6 9.4 9.1 97 0.2 CALM 0 0 0 0 1024.6 1024.6 0.0
24/06:06am 8.0 7.4 7.2 95 0.4 CALM 0 0 0 0 1024.5 1024.5 0.0
24/06:00am 7.5 6.8 6.8 95 0.3 CALM 0 0 0 0 1024.5 1024.5 0.0
24/05:40am 7.3 6.5 6.6 95 0.3 CALM 0 0 0 0 1024.4 1024.4 0.0
24/05:30am 8.6 8.2 8.2 97 0.2 CALM 0 2 0 1 1024.4 1024.4 0.0
24/05:00am 8.2 7.6 7.6 96 0.3 CALM 0 2 0 1 1024.4 1024.4 0.0
24/04:42am 7.7 6.3 7.1 96 0.3 NNW 4 7 2 4 1024.2 1024.2 0.0
24/04:30am 7.6 6.9 6.9 95 0.3 CALM 0 0 0 0 1024.1 1024.1 0.0
24/04:19am 7.1 6.2 6.2 94 0.4 CALM 0 0 0 0 1024.1 1024.1 0.0
24/04:00am 7.2 6.3 6.1 93 0.5 CALM 0 0 0 0 1024.1 1024.1 0.0
24/03:30am 7.5 6.7 6.4 93 0.5 NNW 0 0 0 0 1024.5 1024.5 0.0
24/03:00am 8.6 8.1 7.8 95 0.4 CALM 0 0 0 0 1024.9 1024.9 0.0
24/02:30am 8.3 7.7 7.4 94 0.4 CALM 0 0 0 0 1025.3 1025.3 0.0
24/02:00am 8.3 7.7 7.2 93 0.5 NNW 0 0 0 0 1025.3 1025.3 0.0
24/01:30am 9.7 9.4 8.8 94 0.4 CALM 0 0 0 0 1025.6 1025.6 0.0
24/01:00am 9.2 8.8 8.3 94 0.4 NNW 0 0 0 0 1025.9 1025.9 0.0
24/12:30am 10.0 9.8 9.1 94 0.4 CALM 0 0 0 0 1026.2 1026.2 0.0
24/12:00am 9.7 9.3 8.3 91 0.7 CALM 0 0 0 0 1026.3 1026.3 0.0
 
Date/Time
EST
Temp
°C
App
Temp
°C
Dew
Point
Rel
Hum
%
Delta-T
°C
Wind Press
QNH
hPa
Press
MSL
hPa
Rain
since 9 am
mm
Dir
 
Spd
km/h
Gust
km/h
Spd
kts
Gust
kts
23/11:30pm 10.7 10.6 9.3 91 0.7 CALM 0 0 0 0 1026.5 1026.5 0.0
23/11:00pm 10.7 10.6 9.5 92 0.6 CALM 0 0 0 0 1026.7 1026.7 0.0
23/10:30pm 10.3 10.1 8.9 91 0.7 CALM 0 0 0 0 1026.9 1026.9 0.0
23/10:00pm 10.1 9.7 8.4 89 0.8 CALM 0 0 0 0 1026.8 1026.8 0.0
23/09:30pm 10.9 10.7 9.2 89 0.8 CALM 0 0 0 0 1027.0 1027.0 0.0
23/09:00pm 11.1 11.0 9.4 89 0.8 CALM 0 0 0 0 1027.1 1027.1 0.0
23/08:30pm 11.7 11.6 9.3 85 1.2 CALM 0 0 0 0 1027.0 1027.0 0.0
23/08:00pm 12.6 11.9 10.0 84 1.3 N 4 7 2 4 1027.0 1027.0 0.0
23/07:30pm 12.8 11.6 9.6 81 1.6 N 6 7 3 4 1026.9 1026.9 0.0
23/07:00pm 14.6 13.3 9.8 73 2.5 N 7 7 4 4 1026.8 1026.8 0.0
23/06:30pm 17.3 15.8 10.7 65 3.5 NNE 9 13 5 7 1026.6 1026.6 0.0
23/06:00pm 17.9 15.9 10.3 61 4.0 NNE 11 15 6 8 1026.3 1026.3 0.0
23/05:30pm 18.5 15.6 9.8 57 4.6 NE 15 20 8 11 1026.3 1026.3 0.0
23/05:00pm 19.2 15.6 9.9 55 4.9 NE 19 26 10 14 1026.1 1026.1 0.0
23/04:30pm 19.9 17.2 11.7 59 4.5 NE 17 24 9 13 1026.5 1026.5 0.0
23/04:00pm 19.6 16.2 11.4 59 4.5 ENE 20 28 11 15 1026.0 1026.0 0.0
23/03:30pm 20.0 16.8 12.0 60 4.5 ENE 20 28 11 15 1026.2 1026.2 0.0
23/03:00pm 20.4 17.2 11.9 58 4.7 ENE 20 30 11 16 1026.4 1026.4 0.0
23/02:30pm 20.4 17.2 11.3 56 5.0 ENE 19 26 10 14 1026.6 1026.6 0.0
23/02:00pm 20.4 17.4 12.1 59 4.6 ENE 19 26 10 14 1027.0 1027.0 0.0
23/01:30pm 20.5 17.1 11.4 56 5.0 ENE 20 26 11 14 1027.1 1027.1 0.0
23/01:00pm 20.6 17.4 11.2 55 5.1 ENE 19 24 10 13 1027.4 1027.4 0.0
23/12:30pm 20.3 17.8 11.2 56 5.0 ENE 15 24 8 13 1027.9 1027.9 0.0
23/12:00pm 21.0 18.7 11.6 55 5.2 ENE 15 22 8 12 1028.5 1028.5 0.0
23/11:30am 20.2 17.9 10.6 54 5.2 ENE 13 20 7 11 1028.8 1028.8 0.0
23/11:00am 20.3 18.8 10.7 54 5.2 ENE 9 15 5 8 1029.1 1029.1 0.0
23/10:30am 19.7 17.3 9.9 53 5.2 ENE 13 19 7 10 1029.4 1029.4 0.0
23/10:00am 20.5 19.5 10.9 54 5.2 W 7 17 4 9 1029.7 1029.7 0.0
23/09:30am 19.4 18.2 9.6 53 5.2 WNW 6 11 3 6 1030.0 1030.0 0.0
23/09:00am 18.2 16.2 10.1 59 4.3 WNW 11 15 6 8 1030.1 1030.1 0.0
23/08:30am 16.9 15.3 10.1 64 3.6 W 9 13 5 7 1030.2 1030.2 0.0
23/08:00am 15.5 13.9 10.1 70 2.8 WNW 9 13 5 7 1030.1 1030.1 0.0
23/07:30am 13.8 11.6 9.3 74 2.3 W 11 15 6 8 1030.1 1030.1 0.0
23/07:00am 12.4 10.5 8.9 79 1.7 W 9 15 5 8 1030.0 1030.0 0.0
23/06:30am 11.1 9.7 8.7 85 1.2 W 6 9 3 5 1029.8 1029.8 0.0
23/06:00am 10.4 8.3 8.2 86 1.1 W 9 13 5 7 1029.8 1029.8 0.0
23/05:30am 9.8 9.3 7.7 87 1.0 CALM 0 4 0 2 1029.7 1029.7 0.0
23/05:00am 10.6 7.8 8.4 86 1.1 W 13 17 7 9 1029.6 1029.6 0.0
23/04:30am 10.2 8.2 8.6 90 0.8 W 9 15 5 8 1029.3 1029.3 0.0
23/04:00am 8.6 8.0 7.4 92 0.6 CALM 0 6 0 3 1029.1 1029.1 0.0
23/03:30am 8.4 7.3 6.7 89 0.8 WSW 2 6 1 3 1028.9 1028.9 0.0
23/03:00am 10.0 9.6 8.3 89 0.8 CALM 0 0 0 0 1028.8 1028.8 0.0
23/02:30am 10.4 10.0 8.3 87 1.0 CALM 0 6 0 3 1029.1 1029.1 0.0
23/02:00am 10.7 10.3 8.1 84 1.3 CALM 0 0 0 0 1029.4 1029.4 0.0
23/01:30am 11.7 9.8 8.9 83 1.4 W 9 13 5 7 1029.6 1029.6 0.0
23/01:00am 11.7 9.4 8.9 83 1.4 W 11 17 6 9 1029.8 1029.8 0.0
23/12:30am 11.4 9.5 9.1 86 1.1 W 9 13 5 7 1029.9 1029.9 0.0
23/12:00am 10.5 10.3 9.1 91 0.7 CALM 0 0 0 0 1030.1 1030.1 0.0
 
Date/Time
EST
Temp
°C
App
Temp
°C
Dew
Point
Rel
Hum
%
Delta-T
°C
Wind Press
QNH
hPa
Press
MSL
hPa
Rain
since 9 am
mm
Dir
 
Spd
km/h
Gust
km/h
Spd
kts
Gust
kts
22/11:30pm 9.4 9.0 8.2 92 0.6 CALM 0 6 0 3 1030.1 1030.1 0.0
22/11:00pm 8.8 8.2 7.6 92 0.6 CALM 0 0 0 0 1030.0 1030.0 0.0
22/10:30pm 8.5 7.9 7.3 92 0.6 CALM 0 0 0 0 1030.1 1030.1 0.0
22/10:00pm 8.8 7.8 7.4 91 0.7 WNW 2 6 1 3 1030.1 1030.1 0.0
22/09:30pm 9.1 8.6 7.7 91 0.7 CALM 0 4 0 2 1030.1 1030.1 0.0
22/09:00pm 9.1 8.5 7.2 88 0.9 CALM 0 0 0 0 1030.2 1030.2 0.0
22/08:30pm 10.0 9.5 7.9 87 1.0 CALM 0 0 0 0 1030.2 1030.2 0.0
22/08:00pm 10.7 10.4 8.6 87 1.0 CALM 0 0 0 0 1030.1 1030.1 0.0
22/07:30pm 11.5 10.1 8.7 83 1.4 WNW 6 7 3 4 1030.0 1030.0 0.0
22/07:00pm 12.4 12.2 8.9 79 1.7 CALM 0 0 0 0 1029.8 1029.8 0.0
22/06:30pm 13.3 13.0 8.8 74 2.3 CALM 0 0 0 0 1029.6 1029.6 0.0
22/06:00pm 15.5 14.1 9.0 65 3.3 S 6 7 3 4 1029.4 1029.4 0.0
22/05:30pm 16.3 14.3 8.8 61 3.8 SSE 9 13 5 7 1029.3 1029.3 0.0
22/05:00pm 17.4 15.0 8.5 56 4.5 SSE 11 15 6 8 1029.0 1029.0 0.0
22/04:30pm 18.7 15.6 8.7 52 5.2 SSE 15 20 8 11 1028.8 1028.8 0.0
22/04:00pm 19.2 15.7 8.8 51 5.4 SSE 17 24 9 13 1028.5 1028.5 0.0
22/03:30pm 19.1 15.1 8.4 50 5.5 SSE 19 26 10 14 1028.5 1028.5 0.0
22/03:00pm 19.0 15.0 8.1 49 5.6 SSE 19 26 10 14 1028.6 1028.6 0.0
22/02:30pm 19.9 15.4 7.0 43 6.5 SSE 20 28 11 15 1028.7 1028.7 0.0
22/02:00pm 19.8 15.5 7.2 44 6.4 SSE 19 26 10 14 1028.9 1028.9 0.0
22/01:30pm 19.3 14.9 7.4 46 6.0 SSE 20 28 11 15 1029.0 1029.0 0.0
22/01:00pm 19.7 14.9 7.4 45 6.2 S 22 30 12 16 1029.3 1029.3 0.0
22/12:30pm 20.2 15.8 8.8 48 6.0 SSE 22 32 12 17 1029.5 1029.5 0.0
22/12:00pm 20.0 16.1 9.3 50 5.6 S 20 30 11 16 1029.9 1029.9 0.0
22/11:30am 19.3 16.1 9.8 54 5.1 S 17 26 9 14 1030.4 1030.4 0.0
22/11:00am 19.0 14.6 8.9 52 5.2 S 22 30 12 16 1030.9 1030.9 0.0
22/10:30am 20.1 16.7 10.5 54 5.2 S 19 30 10 16 1031.1 1031.1 0.0
22/10:00am 19.7 16.3 10.4 55 5.0 SSW 19 28 10 15 1031.0 1031.0 0.0
22/09:30am 18.2 15.4 11.3 64 3.8 SSW 17 22 9 12 1031.1 1031.1 0.0
22/09:00am 18.5 17.0 12.0 66 3.6 WSW 11 17 6 9 1031.2 1031.2 0.0
22/08:30am 16.6 15.3 11.1 70 3.0 WSW 9 15 5 8 1031.1 1031.1 0.0
22/08:00am 15.2 13.3 10.4 73 2.5 WSW 11 15 6 8 1030.9 1030.9 0.0
22/07:30am 13.7 11.2 9.6 76 2.1 W 13 17 7 9 1031.0 1031.0 0.0
22/07:00am 12.6 11.2 9.4 81 1.6 W 7 11 4 6 1030.5 1030.5 0.0
22/06:30am 11.3 9.3 8.7 84 1.3 WSW 9 11 5 6 1029.9 1029.9 0.0
22/06:00am 10.6 8.5 8.4 86 1.1 W 9 13 5 7 1029.6 1029.6 0.0
22/05:30am 10.6 8.6 8.5 87 1.0 W 9 11 5 6 1029.3 1029.3 0.0
22/05:00am 10.8 9.7 8.6 86 1.1 W 4 7 2 4 1029.2 1029.2 0.0
22/04:30am 11.2 9.2 8.8 85 1.2 WSW 9 13 5 7 1028.8 1028.8 0.0
22/04:00am 11.5 9.5 8.7 83 1.4 W 9 13 5 7 1028.6 1028.6 0.0
22/03:30am 11.8 9.9 9.2 84 1.3 W 9 15 5 8 1028.5 1028.5 0.0
22/03:00am 11.7 9.4 8.9 83 1.4 W 11 15 6 8 1028.6 1028.6 0.0
22/02:30am 11.8 8.7 9.0 83 1.4 W 15 20 8 11 1028.7 1028.7 0.0
22/02:00am 11.4 9.0 8.8 84 1.3 WSW 11 17 6 9 1028.8 1028.8 0.0
22/01:30am 11.4 9.1 9.0 85 1.2 W 11 20 6 11 1028.8 1028.8 0.0
22/01:00am 11.2 9.8 8.8 85 1.2 W 6 9 3 5 1029.2 1029.2 0.0
22/12:30am 11.9 10.1 9.5 85 1.2 WSW 9 13 5 7 1029.5 1029.5 0.0
22/12:00am 11.3 10.0 9.2 87 1.0 WNW 6 9 3 5 1029.7 1029.7 0.0
 
Date/Time
EST
Temp
°C
App
Temp
°C
Dew
Point
Rel
Hum
%
Delta-T
°C
Wind Press
QNH
hPa
Press
MSL
hPa
Rain
since 9 am
mm
Dir
 
Spd
km/h
Gust
km/h
Spd
kts
Gust
kts
21/11:30pm 10.5 10.5 9.9 96 0.3 CALM 0 0 0 0 1029.8 1029.8 0.0
21/11:00pm 8.7 7.0 7.6 93 0.5 WSW 6 9 3 5 1029.8 1029.8 0.0
21/10:30pm 9.1 7.9 7.9 92 0.6 W 4 7 2 4 1030.2 1030.2 0.0
21/10:00pm 9.5 9.1 8.3 92 0.6 CALM 0 0 0 0 1030.3 1030.3 0.0
21/09:30pm 9.8 9.4 8.1 89 0.8 CALM 0 0 0 0 1029.9 1029.9 0.0
21/09:00pm 10.2 9.8 8.3 88 0.9 CALM 0 0 0 0 1029.9 1029.9 0.0
21/08:30pm 10.4 10.1 8.7 89 0.8 CALM 0 0 0 0 1029.7 1029.7 0.0
21/08:00pm 10.7 9.2 8.6 87 1.0 SW 6 7 3 4 1029.4 1029.4 0.0
21/07:30pm 11.2 9.6 8.9 86 1.1 SW 7 7 4 4 1029.1 1029.1 0.0
21/07:00pm 12.0 11.8 9.0 82 1.5 CALM 0 0 0 0 1028.9 1028.9 0.0
21/06:30pm 13.4 13.3 9.5 77 2.0 CALM 0 0 0 0 1028.6 1028.6 0.0
21/06:00pm 15.0 13.7 9.1 68 3.0 SSE 6 7 3 4 1028.2 1028.2 0.0
21/05:30pm 16.3 14.8 9.0 62 3.8 SSE 7 9 4 5 1027.9 1027.9 0.0
21/05:00pm 17.7 15.0 8.8 56 4.6 ESE 13 19 7 10 1027.7 1027.7 0.0
21/04:30pm 18.8 16.1 9.0 53 5.1 SSE 13 20 7 11 1027.2 1027.2 0.0
21/04:00pm 18.2 13.7 8.7 54 4.9 SSE 22 28 12 15 1026.8 1026.8 0.0
21/03:30pm 19.1 14.6 8.4 50 5.5 SSE 22 28 12 15 1027.1 1027.1 0.0
21/03:00pm 19.4 14.6 8.7 50 5.5 SSE 24 32 13 17 1027.1 1027.1 0.0
21/02:30pm 19.8 15.7 8.8 49 5.8 SSE 20 30 11 16 1026.9 1026.9 0.0

Other Formats:

Comma delimited format used in spreadsheet applications
http://www.bom.gov.au/fwo/IDN60801/IDN60801.94786.axf

JavaScript Object Notation format (JSON) in row-major order
http://www.bom.gov.au/fwo/IDN60801/IDN60801.94786.json